RYR88HN LDZD-EPKK
Flight info
| Callsign | RYR88HN |
|---|---|
| Flight time | 1h 8m |
| Altitude | 35000 |
| Route | PALEZ DCT KOPRY DCT XOMBA DCT MOCON/N0389F230 M985 MEBAN |
| Aircraft | B738/M-SDE2E3FGHIRWXY/LB1 |
Departure
| Time | 2026-04-30 13:26 |
|---|---|
| Airport | Zadar Airport (LDZD) |
Arrival
| Time | 2026-04-30 14:34 |
|---|---|
| Airport | Kraków John Paul II International Airport (EPKK) |
| Time | Latitude | Longitude | Altitude | Speed | Heading |
|---|---|---|---|---|---|
| 2026-04-30 13:17 | 44.09698 | 15.35466 | 261 ft | 0 kts | 269° |
| 2026-04-30 13:23 | 44.09699 | 15.35462 | 261 ft | 1 kts | 297° |
| 2026-04-30 13:23 | 44.09752 | 15.35507 | 260 ft | 5 kts | 30° |
| 2026-04-30 13:24 | 44.09883 | 15.35523 | 259 ft | 12 kts | 25° |
| 2026-04-30 13:24 | 44.10003 | 15.35676 | 257 ft | 10 kts | 45° |
| 2026-04-30 13:25 | 44.10095 | 15.35661 | 257 ft | 11 kts | 316° |
| 2026-04-30 13:25 | 44.10714 | 15.34822 | 251 ft | 136 kts | 315° |
| 2026-04-30 13:26 | 44.13384 | 15.31141 | 1994 ft | 204 kts | 322° |
| 2026-04-30 13:26 | 44.15742 | 15.28113 | 3267 ft | 251 kts | 322° |
| 2026-04-30 13:27 | 44.18425 | 15.24749 | 4802 ft | 268 kts | 324° |
| 2026-04-30 13:28 | 44.23060 | 15.19574 | 6654 ft | 309 kts | 324° |
| 2026-04-30 13:28 | 44.26554 | 15.15682 | 7734 ft | 338 kts | 325° |
| 2026-04-30 13:28 | 44.28581 | 15.13897 | 8285 ft | 348 kts | 338° |
| 2026-04-30 13:29 | 44.33255 | 15.13799 | 9902 ft | 348 kts | 24° |
| 2026-04-30 13:29 | 44.36609 | 15.18647 | 11391 ft | 359 kts | 50° |
| 2026-04-30 13:30 | 44.42474 | 15.25197 | 13677 ft | 368 kts | 31° |
| 2026-04-30 13:31 | 44.46852 | 15.29105 | 15136 ft | 376 kts | 30° |
| 2026-04-30 13:31 | 44.53521 | 15.35075 | 17235 ft | 386 kts | 30° |
| 2026-04-30 13:32 | 44.58073 | 15.39215 | 18549 ft | 393 kts | 30° |
| 2026-04-30 13:32 | 44.62699 | 15.43443 | 19763 ft | 401 kts | 30° |
| 2026-04-30 13:33 | 44.67387 | 15.47732 | 20899 ft | 409 kts | 30° |
| 2026-04-30 13:33 | 44.72268 | 15.52204 | 21624 ft | 426 kts | 30° |
| 2026-04-30 13:34 | 44.74754 | 15.54489 | 22481 ft | 422 kts | 30° |
| 2026-04-30 13:34 | 44.82182 | 15.61329 | 24033 ft | 432 kts | 30° |
| 2026-04-30 13:35 | 44.84686 | 15.63641 | 24804 ft | 429 kts | 30° |
| 2026-04-30 13:35 | 44.89684 | 15.68264 | 26023 ft | 428 kts | 31° |
| 2026-04-30 13:36 | 44.94666 | 15.72879 | 27165 ft | 428 kts | 31° |
| 2026-04-30 13:36 | 44.97151 | 15.75185 | 27730 ft | 427 kts | 31° |
| 2026-04-30 13:36 | 45.02140 | 15.79820 | 28780 ft | 427 kts | 31° |
| 2026-04-30 13:37 | 45.04610 | 15.82118 | 29284 ft | 426 kts | 31° |
| 2026-04-30 13:37 | 45.09575 | 15.86746 | 30209 ft | 426 kts | 31° |
| 2026-04-30 13:38 | 45.14470 | 15.91319 | 31125 ft | 424 kts | 30° |
| 2026-04-30 13:38 | 45.16907 | 15.93599 | 31469 ft | 424 kts | 30° |
| 2026-04-30 13:38 | 45.21874 | 15.98253 | 31907 ft | 431 kts | 30° |
| 2026-04-30 13:39 | 45.26904 | 16.02971 | 32425 ft | 434 kts | 30° |
| 2026-04-30 13:39 | 45.31934 | 16.07706 | 32985 ft | 432 kts | 30° |
| 2026-04-30 13:40 | 45.34427 | 16.10056 | 33245 ft | 431 kts | 30° |
| 2026-04-30 13:40 | 45.36936 | 16.12425 | 33483 ft | 431 kts | 30° |
| 2026-04-30 13:40 | 45.39461 | 16.14809 | 33699 ft | 432 kts | 30° |
| 2026-04-30 13:40 | 45.41970 | 16.17182 | 33960 ft | 431 kts | 30° |
| 2026-04-30 13:41 | 45.44447 | 16.19526 | 34224 ft | 431 kts | 30° |
| 2026-04-30 13:41 | 45.46946 | 16.21894 | 34519 ft | 431 kts | 30° |
| 2026-04-30 13:41 | 45.49427 | 16.24247 | 34817 ft | 430 kts | 30° |
| 2026-04-30 13:41 | 45.51914 | 16.26609 | 35122 ft | 429 kts | 30° |
| 2026-04-30 13:42 | 45.54379 | 16.28953 | 35293 ft | 430 kts | 30° |
| 2026-04-30 13:42 | 45.62004 | 16.36208 | 35330 ft | 446 kts | 30° |
| 2026-04-30 13:43 | 45.67175 | 16.41148 | 35332 ft | 445 kts | 30° |
| 2026-04-30 13:43 | 45.72303 | 16.46063 | 35328 ft | 444 kts | 31° |
| 2026-04-30 13:44 | 45.77460 | 16.51014 | 35320 ft | 445 kts | 31° |
| 2026-04-30 13:44 | 45.82589 | 16.55949 | 35318 ft | 445 kts | 31° |
| 2026-04-30 13:45 | 45.90293 | 16.63381 | 35318 ft | 444 kts | 31° |
| 2026-04-30 13:46 | 45.95425 | 16.68346 | 35316 ft | 444 kts | 31° |
| 2026-04-30 13:46 | 46.00579 | 16.73343 | 35322 ft | 445 kts | 32° |
| 2026-04-30 13:47 | 46.05705 | 16.78323 | 35330 ft | 445 kts | 32° |
| 2026-04-30 13:47 | 46.10822 | 16.83307 | 35338 ft | 444 kts | 32° |
| 2026-04-30 13:48 | 46.15910 | 16.88275 | 35341 ft | 443 kts | 32° |
| 2026-04-30 13:48 | 46.20982 | 16.93238 | 35342 ft | 443 kts | 32° |
| 2026-04-30 13:49 | 46.26241 | 16.97914 | 35339 ft | 439 kts | 26° |
| 2026-04-30 13:49 | 46.31679 | 17.01861 | 35337 ft | 439 kts | 24° |
| 2026-04-30 13:50 | 46.37190 | 17.05655 | 35336 ft | 439 kts | 23° |
| 2026-04-30 13:50 | 46.45508 | 17.11427 | 35338 ft | 438 kts | 24° |
| 2026-04-30 13:51 | 46.50964 | 17.15269 | 35340 ft | 438 kts | 24° |
| 2026-04-30 13:51 | 46.56450 | 17.19159 | 35348 ft | 436 kts | 24° |
| 2026-04-30 13:52 | 46.61899 | 17.23040 | 35346 ft | 435 kts | 24° |
| 2026-04-30 13:52 | 46.67294 | 17.26891 | 35354 ft | 436 kts | 24° |
| 2026-04-30 13:53 | 46.72731 | 17.30783 | 35350 ft | 435 kts | 24° |
| 2026-04-30 13:53 | 46.78172 | 17.34685 | 35345 ft | 435 kts | 24° |
| 2026-04-30 13:54 | 46.83573 | 17.38568 | 35344 ft | 435 kts | 24° |
| 2026-04-30 13:54 | 46.88999 | 17.42477 | 35342 ft | 435 kts | 24° |
| 2026-04-30 13:55 | 46.94439 | 17.46406 | 35340 ft | 435 kts | 24° |
| 2026-04-30 13:55 | 46.99841 | 17.50317 | 35331 ft | 434 kts | 24° |
| 2026-04-30 13:56 | 47.05246 | 17.54237 | 35338 ft | 434 kts | 24° |
| 2026-04-30 13:56 | 47.10642 | 17.58161 | 35344 ft | 434 kts | 25° |
| 2026-04-30 13:57 | 47.16020 | 17.62080 | 35349 ft | 432 kts | 25° |
| 2026-04-30 13:57 | 47.21375 | 17.65992 | 35351 ft | 433 kts | 25° |
| 2026-04-30 13:58 | 47.29426 | 17.71891 | 35351 ft | 432 kts | 25° |
| 2026-04-30 13:59 | 47.34804 | 17.75841 | 35350 ft | 431 kts | 25° |
| 2026-04-30 13:59 | 47.40163 | 17.79785 | 35348 ft | 430 kts | 25° |
| 2026-04-30 14:00 | 47.45514 | 17.83735 | 35344 ft | 430 kts | 25° |
| 2026-04-30 14:00 | 47.53503 | 17.89647 | 35347 ft | 430 kts | 25° |
| 2026-04-30 14:01 | 47.58863 | 17.93625 | 35342 ft | 429 kts | 25° |
| 2026-04-30 14:01 | 47.64183 | 17.97582 | 35341 ft | 429 kts | 25° |
| 2026-04-30 14:02 | 47.69517 | 18.01558 | 35338 ft | 428 kts | 25° |
| 2026-04-30 14:02 | 47.74863 | 18.05554 | 35327 ft | 428 kts | 26° |
| 2026-04-30 14:03 | 47.80124 | 18.09615 | 35319 ft | 428 kts | 27° |
| 2026-04-30 14:03 | 47.85371 | 18.13851 | 35326 ft | 428 kts | 27° |
| 2026-04-30 14:04 | 47.90583 | 18.18084 | 35334 ft | 428 kts | 27° |
| 2026-04-30 14:04 | 47.95814 | 18.22327 | 35333 ft | 427 kts | 27° |
| 2026-04-30 14:05 | 48.01040 | 18.26562 | 35334 ft | 426 kts | 27° |
| 2026-04-30 14:05 | 48.06250 | 18.30785 | 35328 ft | 426 kts | 27° |
| 2026-04-30 14:06 | 48.14048 | 18.37122 | 35328 ft | 426 kts | 27° |
| 2026-04-30 14:07 | 48.21821 | 18.43459 | 35327 ft | 425 kts | 27° |
| 2026-04-30 14:08 | 48.29630 | 18.49848 | 35324 ft | 425 kts | 27° |
| 2026-04-30 14:08 | 48.37408 | 18.56232 | 35322 ft | 424 kts | 27° |
| 2026-04-30 14:09 | 48.42559 | 18.60471 | 35317 ft | 424 kts | 27° |
| 2026-04-30 14:10 | 48.50318 | 18.66879 | 35324 ft | 423 kts | 28° |
| 2026-04-30 14:10 | 48.55442 | 18.71123 | 35325 ft | 421 kts | 28° |
| 2026-04-30 14:11 | 48.60625 | 18.75426 | 35322 ft | 423 kts | 28° |
| 2026-04-30 14:11 | 48.65778 | 18.79713 | 35322 ft | 422 kts | 28° |
| 2026-04-30 14:12 | 48.70922 | 18.84003 | 35314 ft | 422 kts | 28° |
| 2026-04-30 14:12 | 48.73492 | 18.86151 | 35022 ft | 421 kts | 28° |
| 2026-04-30 14:12 | 48.76012 | 18.88260 | 34892 ft | 410 kts | 28° |
| 2026-04-30 14:12 | 48.77650 | 18.89632 | 34714 ft | 406 kts | 28° |
| 2026-04-30 14:13 | 48.80935 | 18.92386 | 34133 ft | 406 kts | 28° |
| 2026-04-30 14:13 | 48.83399 | 18.94465 | 33759 ft | 403 kts | 29° |
| 2026-04-30 14:13 | 48.85834 | 18.96546 | 33299 ft | 402 kts | 29° |
| 2026-04-30 14:13 | 48.88279 | 18.98654 | 32837 ft | 401 kts | 29° |
| 2026-04-30 14:14 | 48.90686 | 19.00738 | 32357 ft | 401 kts | 30° |
| 2026-04-30 14:14 | 48.93125 | 19.02854 | 31868 ft | 399 kts | 30° |
| 2026-04-30 14:14 | 48.95525 | 19.04937 | 31317 ft | 398 kts | 30° |
| 2026-04-30 14:14 | 48.97915 | 19.07012 | 30700 ft | 396 kts | 30° |
| 2026-04-30 14:15 | 49.00317 | 19.09099 | 30028 ft | 394 kts | 30° |
| 2026-04-30 14:15 | 49.02692 | 19.11161 | 29365 ft | 392 kts | 30° |
| 2026-04-30 14:15 | 49.05025 | 19.13190 | 28707 ft | 390 kts | 30° |
| 2026-04-30 14:15 | 49.07395 | 19.15252 | 28039 ft | 388 kts | 30° |
| 2026-04-30 14:16 | 49.09729 | 19.17285 | 27376 ft | 386 kts | 30° |
| 2026-04-30 14:16 | 49.12007 | 19.19272 | 26730 ft | 384 kts | 30° |
| 2026-04-30 14:16 | 49.14314 | 19.21286 | 26070 ft | 383 kts | 30° |
| 2026-04-30 14:16 | 49.16611 | 19.23295 | 25402 ft | 381 kts | 30° |
| 2026-04-30 14:17 | 49.18901 | 19.25297 | 24781 ft | 377 kts | 30° |
| 2026-04-30 14:17 | 49.21179 | 19.27288 | 24241 ft | 372 kts | 30° |
| 2026-04-30 14:17 | 49.23393 | 19.29226 | 23698 ft | 367 kts | 30° |
| 2026-04-30 14:17 | 49.25613 | 19.31174 | 23153 ft | 363 kts | 30° |
| 2026-04-30 14:18 | 49.27805 | 19.33101 | 22610 ft | 358 kts | 30° |
| 2026-04-30 14:18 | 49.29972 | 19.35010 | 22069 ft | 354 kts | 30° |
| 2026-04-30 14:18 | 49.34175 | 19.38720 | 21005 ft | 346 kts | 30° |
| 2026-04-30 14:19 | 49.38301 | 19.42365 | 19950 ft | 339 kts | 30° |
| 2026-04-30 14:19 | 49.40347 | 19.44176 | 19415 ft | 336 kts | 30° |
| 2026-04-30 14:19 | 49.42379 | 19.45978 | 18888 ft | 332 kts | 30° |
| 2026-04-30 14:20 | 49.44361 | 19.47743 | 18371 ft | 329 kts | 30° |
| 2026-04-30 14:20 | 49.46336 | 19.49502 | 17848 ft | 326 kts | 30° |
| 2026-04-30 14:20 | 49.50218 | 19.52954 | 16825 ft | 320 kts | 30° |
| 2026-04-30 14:21 | 49.52147 | 19.54672 | 16315 ft | 317 kts | 30° |
| 2026-04-30 14:21 | 49.54044 | 19.56361 | 15918 ft | 312 kts | 30° |
| 2026-04-30 14:21 | 49.57740 | 19.59654 | 14950 ft | 308 kts | 30° |
| 2026-04-30 14:22 | 49.59601 | 19.61310 | 14440 ft | 306 kts | 29° |
| 2026-04-30 14:22 | 49.63275 | 19.64601 | 13419 ft | 304 kts | 30° |
| 2026-04-30 14:22 | 49.65107 | 19.66245 | 12901 ft | 303 kts | 30° |
| 2026-04-30 14:23 | 49.68780 | 19.69540 | 11879 ft | 302 kts | 30° |
| 2026-04-30 14:23 | 49.72400 | 19.72784 | 10855 ft | 301 kts | 30° |
| 2026-04-30 14:24 | 49.76004 | 19.76027 | 9833 ft | 300 kts | 30° |
| 2026-04-30 14:24 | 49.77813 | 19.77658 | 9320 ft | 299 kts | 30° |
| 2026-04-30 14:25 | 49.81379 | 19.80877 | 8200 ft | 299 kts | 30° |
| 2026-04-30 14:25 | 49.84972 | 19.84120 | 6670 ft | 301 kts | 29° |
| 2026-04-30 14:26 | 49.88558 | 19.87365 | 5398 ft | 293 kts | 30° |
| 2026-04-30 14:26 | 49.90290 | 19.88937 | 5025 ft | 287 kts | 29° |
| 2026-04-30 14:26 | 49.93647 | 19.91996 | 4420 ft | 268 kts | 30° |
| 2026-04-30 14:27 | 49.95213 | 19.93393 | 4231 ft | 253 kts | 24° |
| 2026-04-30 14:27 | 49.96833 | 19.94280 | 3915 ft | 244 kts | 12° |
| 2026-04-30 14:27 | 49.97399 | 19.94446 | 3837 ft | 239 kts | 8° |
| 2026-04-30 14:29 | 49.98667 | 19.94629 | 3558 ft | 229 kts | 2° |
| 2026-04-30 14:30 | 50.03279 | 19.94284 | 2797 ft | 170 kts | 351° |
| 2026-04-30 14:31 | 50.05487 | 19.93414 | 2716 ft | 153 kts | 343° |
| 2026-04-30 14:31 | 50.07267 | 19.91801 | 2460 ft | 151 kts | 317° |
| 2026-04-30 14:31 | 50.07972 | 19.90570 | 2270 ft | 153 kts | 313° |
| 2026-04-30 14:32 | 50.08805 | 19.87577 | 1861 ft | 153 kts | 280° |
| 2026-04-30 14:32 | 50.08794 | 19.85937 | 1749 ft | 152 kts | 264° |
| 2026-04-30 14:32 | 50.08550 | 19.84296 | 1480 ft | 157 kts | 259° |
| 2026-04-30 14:33 | 50.08335 | 19.82689 | 1244 ft | 148 kts | 262° |
| 2026-04-30 14:33 | 50.07913 | 19.79544 | 821 ft | 146 kts | 260° |
| 2026-04-30 14:33 | 50.07734 | 19.78200 | 799 ft | 92 kts | 257° |
| 2026-04-30 14:34 | 50.07634 | 19.77492 | 799 ft | 56 kts | 258° |
| 2026-04-30 14:34 | 50.07565 | 19.77000 | 799 ft | 35 kts | 258° |
| 2026-04-30 14:34 | 50.07486 | 19.76848 | 799 ft | 16 kts | 175° |
| 2026-04-30 14:34 | 50.07377 | 19.76881 | 799 ft | 15 kts | 167° |
| 2026-04-30 14:35 | 50.07321 | 19.77066 | 799 ft | 12 kts | 76° |
| 2026-04-30 14:35 | 50.07353 | 19.77273 | 799 ft | 19 kts | 76° |
| 2026-04-30 14:35 | 50.07388 | 19.77530 | 799 ft | 29 kts | 77° |
| 2026-04-30 14:36 | 50.07433 | 19.77841 | 799 ft | 28 kts | 77° |
| 2026-04-30 14:36 | 50.07476 | 19.78133 | 799 ft | 27 kts | 79° |
| 2026-04-30 14:36 | 50.07513 | 19.78416 | 799 ft | 26 kts | 76° |
| 2026-04-30 14:36 | 50.07551 | 19.78688 | 799 ft | 25 kts | 78° |
| 2026-04-30 14:37 | 50.07586 | 19.78947 | 799 ft | 23 kts | 78° |
| 2026-04-30 14:37 | 50.07620 | 19.79194 | 799 ft | 22 kts | 77° |
| 2026-04-30 14:37 | 50.07654 | 19.79428 | 799 ft | 21 kts | 78° |
| 2026-04-30 14:37 | 50.07685 | 19.79656 | 799 ft | 20 kts | 77° |
| 2026-04-30 14:38 | 50.07703 | 19.79838 | 799 ft | 11 kts | 117° |
| 2026-04-30 14:38 | 50.07635 | 19.79887 | 799 ft | 10 kts | 166° |
| 2026-04-30 14:38 | 50.07568 | 19.79913 | 799 ft | 9 kts | 167° |
| 2026-04-30 14:38 | 50.07515 | 19.79949 | 799 ft | 7 kts | 121° |
| 2026-04-30 14:39 | 50.07518 | 19.80034 | 799 ft | 10 kts | 76° |
| 2026-04-30 14:39 | 50.07539 | 19.80173 | 799 ft | 11 kts | 77° |
| 2026-04-30 14:39 | 50.07547 | 19.80240 | 799 ft | 3 kts | 99° |
| 2026-04-30 14:40 | 50.07504 | 19.80271 | 799 ft | 2 kts | 167° |
| 2026-04-30 14:40 | 50.07495 | 19.80274 | 799 ft | 0 kts | 167° |